createdAt,value
2023-06-26T00:26:58.459Z,99832.63
2023-06-26T00:43:23.942Z,99827.09
2023-06-26T00:45:51.798Z,99818.38
2023-06-26T00:48:21.828Z,99813.56
2023-06-26T00:50:49.592Z,99819.28
2023-06-26T00:53:17.399Z,99825.53
2023-06-26T00:55:45.845Z,99814.06
2023-06-26T00:58:13.742Z,99824.59
2023-06-26T01:00:42.249Z,99817.13
2023-06-26T01:03:10.175Z,99810.47
2023-06-26T01:05:39.695Z,99811.47
2023-06-26T01:08:09.164Z,99814.09
2023-06-26T01:10:37.330Z,99810.91
2023-06-26T01:13:05.841Z,99812.50
2023-06-26T01:15:33.755Z,99812.97
2023-06-26T01:18:04.605Z,99810.75
2023-06-26T01:20:43.781Z,99815.00
2023-06-26T01:23:11.418Z,99813.22
2023-06-26T01:26:06.844Z,99809.41
2023-06-26T01:28:40.119Z,99811.66
2023-06-26T01:31:08.831Z,99812.47
2023-06-26T01:33:37.568Z,99806.63
2023-06-26T01:36:05.677Z,99814.72
2023-06-26T01:38:33.328Z,99819.19
2023-06-26T01:41:01.056Z,99811.88
2023-06-26T01:44:08.678Z,99815.31
2023-06-26T01:46:55.065Z,99813.84
2023-06-26T01:49:50.635Z,99814.22
2023-06-26T01:52:37.222Z,99812.19
2023-06-26T01:55:31.203Z,99820.66
2023-06-26T01:58:00.426Z,99817.63
2023-06-26T02:00:29.036Z,99820.84
2023-06-26T02:02:56.925Z,99824.06
2023-06-26T02:05:25.182Z,99831.88
2023-06-26T02:07:53.015Z,99829.03
2023-06-26T02:10:20.840Z,99829.41
2023-06-26T02:12:48.540Z,99820.88
2023-06-26T02:15:17.490Z,99821.03
2023-06-26T02:17:49.292Z,99823.22
2023-06-26T02:20:17.471Z,99827.66
2023-06-26T02:22:45.628Z,99824.59
2023-06-26T02:25:13.954Z,99817.88
2023-06-26T02:27:43.618Z,99825.47
2023-06-26T02:30:11.840Z,99830.44
2023-06-26T02:32:40.127Z,99824.16
2023-06-26T02:35:08.612Z,99830.59
2023-06-26T02:37:36.589Z,99825.47
2023-06-26T02:40:11.651Z,99831.69
2023-06-26T02:42:41.457Z,99821.50
2023-06-26T02:45:10.126Z,99827.13
2023-06-26T02:47:40.833Z,99819.03
2023-06-26T02:50:11.266Z,99828.06
2023-06-26T02:53:17.780Z,99835.09
2023-06-26T02:55:48.892Z,99827.78
2023-06-26T02:58:17.587Z,99821.50
2023-06-26T03:00:46.117Z,99829.75
2023-06-26T03:03:17.330Z,99827.50
2023-06-26T03:05:45.799Z,99825.22
2023-06-26T03:08:14.316Z,99830.06
2023-06-26T03:10:42.191Z,99822.69
2023-06-26T03:13:10.504Z,99827.13
2023-06-26T03:15:38.804Z,99825.88
2023-06-26T03:18:07.575Z,99821.41
2023-06-26T03:20:35.340Z,99829.69
2023-06-26T03:23:03.067Z,99826.22
2023-06-26T03:25:30.821Z,99821.78
2023-06-26T03:28:10.183Z,99825.00
2023-06-26T03:30:38.345Z,99818.44
2023-06-26T03:33:07.307Z,99817.56
2023-06-26T03:35:35.341Z,99825.72
2023-06-26T03:38:05.602Z,99824.16
2023-06-26T03:40:34.176Z,99818.66
2023-06-26T03:43:02.784Z,99816.41
2023-06-26T03:45:38.197Z,99814.91
2023-06-26T03:48:05.949Z,99818.28
2023-06-26T03:50:33.688Z,99807.50
2023-06-26T03:53:01.536Z,99809.75
2023-06-26T03:55:29.333Z,99805.59
2023-06-26T03:57:57.062Z,99808.91
2023-06-26T04:00:24.878Z,99811.72
2023-06-26T04:02:52.834Z,99812.47
2023-06-26T04:05:20.661Z,99809.53
2023-06-26T04:07:52.351Z,99807.94
2023-06-26T04:10:22.496Z,99802.06
2023-06-26T04:12:50.292Z,99797.91
2023-06-26T04:15:17.936Z,99809.59
2023-06-26T04:17:45.850Z,99813.38
2023-06-26T04:20:14.315Z,99806.97
2023-06-26T04:22:42.112Z,99809.69
2023-06-26T04:25:10.085Z,99803.69
2023-06-26T04:27:39.527Z,99804.56
2023-06-26T04:30:09.493Z,99801.41
2023-06-26T04:32:37.267Z,99807.03
2023-06-26T04:35:05.284Z,99805.34
2023-06-26T04:37:33.121Z,99798.53
2023-06-26T04:40:05.027Z,99808.94
2023-06-26T04:42:33.430Z,99801.81
2023-06-26T04:45:03.439Z,99802.38
2023-06-26T04:47:33.802Z,99808.94
2023-06-26T04:50:01.814Z,99804.47
2023-06-26T04:52:32.041Z,99804.47
2023-06-26T04:54:59.942Z,99800.22
2023-06-26T04:57:27.803Z,99793.81
2023-06-26T04:59:59.850Z,99788.72
2023-06-26T05:02:36.329Z,99787.19
2023-06-26T05:05:17.843Z,99786.16
2023-06-26T05:11:41.505Z,99797.38
2023-06-26T05:14:26.428Z,99802.69
2023-06-26T05:17:39.407Z,99796.09
2023-06-26T05:20:17.633Z,99801.47
2023-06-26T05:22:45.752Z,99796.56
2023-06-26T05:25:15.964Z,99791.06
2023-06-26T05:27:44.102Z,99801.16
2023-06-26T05:30:12.702Z,99797.53
2023-06-26T05:32:44.510Z,99791.16
2023-06-26T05:35:28.333Z,99782.91
2023-06-26T05:39:11.422Z,99787.09
2023-06-26T06:01:34.959Z,99795.81
2023-06-26T06:04:05.568Z,99791.63
2023-06-26T06:06:33.347Z,99783.97
2023-06-26T06:09:01.009Z,99786.91
2023-06-26T06:11:28.685Z,99781.13
2023-06-26T06:13:56.365Z,99777.47
2023-06-26T06:16:23.951Z,99785.56
2023-06-26T06:18:51.802Z,99785.88
2023-06-26T06:21:21.692Z,99775.56
2023-06-26T06:23:49.298Z,99779.81
2023-06-26T06:26:16.898Z,99770.25
2023-06-26T06:28:44.550Z,99779.28
2023-06-26T06:31:12.471Z,99778.28
2023-06-26T06:33:40.376Z,99774.31
2023-06-26T06:36:10.607Z,99781.78
2023-06-26T06:38:38.341Z,99777.34
2023-06-26T06:41:08.564Z,99782.22
2023-06-26T06:43:37.280Z,99787.25
2023-06-26T06:46:06.678Z,99780.91
2023-06-26T06:48:34.399Z,99770.84
2023-06-26T06:51:02.232Z,99767.94
2023-06-26T06:53:30.141Z,99763.72
2023-06-26T06:55:57.736Z,99762.69
2023-06-26T06:58:25.382Z,99765.69
2023-06-26T07:00:53.296Z,99768.13
2023-06-26T07:03:22.771Z,99758.13
2023-06-26T07:05:50.458Z,99761.44
2023-06-26T07:08:18.343Z,99760.44
2023-06-26T07:10:46.067Z,99767.94
2023-06-26T07:13:13.962Z,99772.72
2023-06-26T07:15:41.683Z,99757.34
2023-06-26T07:18:09.344Z,99756.28
2023-06-26T07:20:37.977Z,99766.41
2023-06-26T07:23:05.868Z,99764.28
2023-06-26T07:25:33.530Z,99756.31
2023-06-26T07:28:01.510Z,99763.25
2023-06-26T07:30:29.198Z,99756.41
2023-06-26T07:32:57.041Z,99747.13
2023-06-26T07:35:26.230Z,99753.31
2023-06-26T07:37:53.984Z,99752.53
2023-06-26T07:40:21.933Z,99754.69
2023-06-26T07:42:50.225Z,99747.53
2023-06-26T07:45:18.094Z,99749.16
2023-06-26T07:47:45.971Z,99743.28
2023-06-26T07:50:13.851Z,99751.06
2023-06-26T07:52:41.564Z,99745.72
2023-06-26T07:55:09.524Z,99737.97
2023-06-26T07:57:37.227Z,99735.53
2023-06-26T08:00:08.157Z,99735.81
2023-06-26T08:02:44.742Z,99743.28
2023-06-26T08:05:12.821Z,99738.50
2023-06-26T08:07:40.828Z,99730.53
2023-06-26T08:10:08.707Z,99729.50
2023-06-26T08:12:37.982Z,99723.66
2023-06-26T08:15:06.252Z,99728.97
2023-06-26T08:17:35.241Z,99724.41
2023-06-26T08:20:03.607Z,99735.56
2023-06-26T08:22:33.030Z,99732.66
2023-06-26T08:25:00.856Z,99725.47
2023-06-26T08:27:28.672Z,99729.72
2023-06-26T08:29:56.342Z,99727.50
2023-06-26T08:32:24.294Z,99729.53
2023-06-26T08:34:52.565Z,99723.25
2023-06-26T08:37:21.232Z,99726.13
2023-06-26T08:39:49.905Z,99735.75
2023-06-26T08:42:17.990Z,99728.38
2023-06-26T08:45:00.265Z,99718.13
2023-06-26T08:47:36.894Z,99717.06
2023-06-26T08:50:15.471Z,99729.25
2023-06-26T08:53:02.320Z,99728.38
2023-06-26T08:55:30.313Z,99717.03
2023-06-26T08:57:58.811Z,99714.69
2023-06-26T09:00:26.951Z,99720.84
2023-06-26T09:02:55.273Z,99720.06
2023-06-26T09:05:23.152Z,99712.75
2023-06-26T09:07:51.345Z,99716.88
2023-06-26T09:10:19.154Z,99726.97
2023-06-26T09:12:49.456Z,99719.97
2023-06-26T09:15:20.999Z,99722.59
2023-06-26T09:17:49.751Z,99718.06
2023-06-26T09:20:17.754Z,99714.06
2023-06-26T09:22:52.445Z,99719.50
2023-06-26T09:25:20.440Z,99719.56
2023-06-26T09:27:48.245Z,99719.25
2023-06-26T09:30:19.654Z,99717.97
2023-06-26T09:32:47.754Z,99718.94
2023-06-26T09:35:16.107Z,99716.78
2023-06-26T09:37:44.642Z,99715.75
2023-06-26T09:40:12.804Z,99717.03
2023-06-26T09:42:40.678Z,99717.34
2023-06-26T09:45:09.023Z,99720.31
2023-06-26T09:47:36.976Z,99719.81
2023-06-26T09:50:06.245Z,99712.94
2023-06-26T09:52:35.875Z,99716.59
2023-06-26T09:55:10.940Z,99717.50
2023-06-26T09:57:39.613Z,99712.53
2023-06-26T10:00:09.581Z,99707.94
2023-06-26T10:02:43.076Z,99700.94
2023-06-26T10:05:11.205Z,99705.13
2023-06-26T10:07:40.492Z,99702.66
2023-06-26T10:10:11.523Z,99706.44
2023-06-26T10:12:39.678Z,99698.94
2023-06-26T10:15:14.163Z,99702.88
2023-06-26T10:17:45.858Z,99697.63
2023-06-26T10:20:15.692Z,99699.16
2023-06-26T10:22:47.038Z,99699.81
2023-06-26T10:25:19.983Z,99702.72
2023-06-26T10:27:59.810Z,99692.34
2023-06-26T10:30:37.164Z,99698.56
2023-06-26T10:33:05.238Z,99695.38
2023-06-26T10:35:33.322Z,99694.88
2023-06-26T10:38:08.011Z,99695.94
2023-06-26T10:40:44.045Z,99689.56
2023-06-26T10:43:13.963Z,99699.13
2023-06-26T10:45:47.513Z,99678.19
2023-06-26T10:48:18.156Z,99680.63
2023-06-26T10:50:50.200Z,99680.56
2023-06-26T10:53:26.611Z,99677.94
2023-06-26T10:56:05.523Z,99676.19
2023-06-26T10:58:43.601Z,99677.00
2023-06-26T11:01:27.664Z,99676.00
2023-06-26T11:04:08.427Z,99670.91
2023-06-26T11:06:40.071Z,99665.00
2023-06-26T11:09:14.824Z,99670.88
2023-06-26T11:11:55.943Z,99658.13
2023-06-26T11:14:26.167Z,99654.03
2023-06-26T11:16:58.450Z,99657.88
2023-06-26T11:19:28.665Z,99650.19
2023-06-26T11:22:01.613Z,99648.56
2023-06-26T11:24:30.683Z,99649.09
2023-06-26T11:27:02.095Z,99643.03
2023-06-26T11:29:29.865Z,99649.66
2023-06-26T11:32:05.153Z,99642.59
2023-06-26T11:34:34.554Z,99653.31
2023-06-26T11:37:02.783Z,99650.78
2023-06-26T11:39:30.844Z,99640.69
2023-06-26T11:42:00.169Z,99626.75
2023-06-26T11:44:31.895Z,99630.94
2023-06-26T11:46:59.707Z,99627.84
2023-06-26T11:49:29.418Z,99624.28
2023-06-26T11:51:57.504Z,99617.19
2023-06-26T11:54:27.294Z,99627.94
2023-06-26T11:57:00.092Z,99621.81
2023-06-26T11:59:43.397Z,99616.63
2023-06-26T12:02:14.099Z,99620.56
2023-06-26T12:04:46.666Z,99613.94
2023-06-26T12:07:15.677Z,99603.84
2023-06-26T12:09:45.422Z,99599.53
2023-06-26T12:12:16.262Z,99597.88
2023-06-26T12:14:44.053Z,99592.47
2023-06-26T12:17:13.367Z,99591.06
2023-06-26T12:19:45.974Z,99590.97
2023-06-26T12:22:13.672Z,99582.13
2023-06-26T12:24:41.525Z,99584.66
2023-06-26T12:27:12.241Z,99592.66
2023-06-26T12:29:43.116Z,99600.88
